createdAt,value
2019-04-28T00:01:43.590Z,32.90
2019-04-28T00:04:14.236Z,29.40
2019-04-28T00:06:44.829Z,33.27
2019-04-28T00:09:16.428Z,31.43
2019-04-28T00:11:46.936Z,29.53
2019-04-28T00:14:21.730Z,35.87
2019-04-28T00:16:52.145Z,33.27
2019-04-28T00:19:24.760Z,34.17
2019-04-28T00:22:01.386Z,36.73
2019-04-28T00:25:01.587Z,31.43
2019-04-28T00:27:32.469Z,29.93
2019-04-28T00:30:03.074Z,31.73
2019-04-28T00:32:33.910Z,34.77
2019-04-28T00:35:05.866Z,32.53
2019-04-28T00:37:38.064Z,35.93
2019-04-28T00:40:11.121Z,34.83
2019-04-28T00:42:41.925Z,34.93
2019-04-28T00:45:13.209Z,31.07
2019-04-28T00:47:43.817Z,35.73
2019-04-28T00:50:15.006Z,34.20
2019-04-28T00:52:45.684Z,32.37
2019-04-28T00:55:16.208Z,31.03
2019-04-28T00:57:46.712Z,32.53
2019-04-28T01:00:18.906Z,35.17
2019-04-28T01:02:50.977Z,33.37
2019-04-28T01:05:21.999Z,35.13
2019-04-28T01:07:52.747Z,28.33
2019-04-28T01:10:24.533Z,31.50
2019-04-28T01:12:55.141Z,33.97
2019-04-28T01:15:44.516Z,31.37
2019-04-28T01:18:30.293Z,34.27
2019-04-28T01:21:00.852Z,30.53
2019-04-28T01:23:31.455Z,32.63
2019-04-28T01:26:02.084Z,32.60
2019-04-28T01:28:32.810Z,33.83
2019-04-28T01:31:21.294Z,32.57
2019-04-28T01:34:10.905Z,34.77
2019-04-28T01:36:41.402Z,36.03
2019-04-28T01:39:11.914Z,38.93
2019-04-28T01:41:42.533Z,32.63
2019-04-28T01:44:13.038Z,31.67
2019-04-28T01:46:43.613Z,32.20
2019-04-28T01:49:14.258Z,36.03
2019-04-28T01:51:46.324Z,32.10
2019-04-28T01:54:16.800Z,29.90
2019-04-28T01:56:47.324Z,30.67
2019-04-28T01:59:17.926Z,32.27
2019-04-28T02:01:49.903Z,30.57
2019-04-28T02:04:20.458Z,28.63
2019-04-28T02:06:51.009Z,36.43
2019-04-28T02:09:21.702Z,31.97
2019-04-28T02:11:52.307Z,36.03
2019-04-28T02:14:22.963Z,38.10
2019-04-28T02:16:53.618Z,39.60
2019-04-28T02:19:24.168Z,43.63
2019-04-28T02:22:20.230Z,33.87
2019-04-28T02:24:50.890Z,33.83
2019-04-28T02:27:21.762Z,38.27
2019-04-28T02:29:52.250Z,37.03
2019-04-28T02:32:24.458Z,40.67
2019-04-28T02:34:55.117Z,37.30
2019-04-28T02:37:25.565Z,35.13
2019-04-28T02:39:56.130Z,40.03
2019-04-28T02:42:26.701Z,37.87
2019-04-28T02:45:00.437Z,33.27
2019-04-28T02:47:33.979Z,41.77
2019-04-28T02:50:12.702Z,37.27
2019-04-28T02:53:11.313Z,42.77
2019-04-28T02:55:41.826Z,48.00
2019-04-28T02:58:13.544Z,46.07
2019-04-28T03:01:01.406Z,45.13
2019-04-28T03:03:16.469Z,39.50
2019-04-28T03:05:47.050Z,39.87
2019-04-28T03:08:17.515Z,44.10
2019-04-28T03:10:50.737Z,38.93
2019-04-28T03:13:20.981Z,45.00
2019-04-28T03:15:51.922Z,40.87
2019-04-28T03:18:22.537Z,33.70
2019-04-28T03:20:53.069Z,41.17
2019-04-28T03:23:23.615Z,36.93
2019-04-28T03:26:01.354Z,36.13
2019-04-28T03:28:51.494Z,37.80
2019-04-28T03:32:04.268Z,41.73
2019-04-28T03:34:12.899Z,51.40
2019-04-28T03:36:43.510Z,45.67
2019-04-28T03:39:14.075Z,50.37
2019-04-28T03:41:44.693Z,62.97
2019-04-28T03:44:15.295Z,72.33
2019-04-28T03:46:51.324Z,61.70
2019-04-28T03:49:32.495Z,66.70
2019-04-28T03:52:05.388Z,50.87
2019-04-28T03:54:36.141Z,36.00
2019-04-28T03:57:06.745Z,36.10
2019-04-28T03:59:37.402Z,37.80
2019-04-28T04:02:10.957Z,70.33
2019-04-28T04:04:41.426Z,84.50
2019-04-28T04:07:12.318Z,76.20
2019-04-28T04:09:53.089Z,55.13
2019-04-28T04:12:30.978Z,49.47
2019-04-28T04:15:36.145Z,48.60
2019-04-28T04:18:11.756Z,51.87
2019-04-28T04:20:42.368Z,47.60
2019-04-28T04:23:13.019Z,49.40
2019-04-28T04:25:43.616Z,66.43
2019-04-28T04:28:14.099Z,79.03
2019-04-28T04:30:44.697Z,74.70
2019-04-28T04:33:15.275Z,72.43
2019-04-28T04:35:45.940Z,79.90
2019-04-28T04:38:16.470Z,81.83
2019-04-28T04:40:47.115Z,80.90
2019-04-28T04:43:17.709Z,75.00
2019-04-28T04:45:50.247Z,54.73
2019-04-28T04:48:21.485Z,69.80
2019-04-28T04:50:52.428Z,70.07
2019-04-28T04:53:22.977Z,59.73
2019-04-28T04:55:53.609Z,68.77
2019-04-28T04:58:24.209Z,63.67
2019-04-28T05:01:03.000Z,64.50
2019-04-28T05:03:35.402Z,54.53
2019-04-28T05:06:24.875Z,57.70
2019-04-28T05:08:55.444Z,59.90
2019-04-28T05:11:26.086Z,59.93
2019-04-28T05:13:56.776Z,57.13
2019-04-28T05:16:27.276Z,59.40
2019-04-28T05:18:59.905Z,39.00
2019-04-28T05:21:33.268Z,56.53
2019-04-28T05:24:30.285Z,53.23
2019-04-28T05:27:01.791Z,36.33
2019-04-28T05:29:32.343Z,47.13
2019-04-28T05:32:03.611Z,38.23
2019-04-28T05:34:34.310Z,45.17
2019-04-28T05:37:04.871Z,51.97
2019-04-28T05:39:37.791Z,43.13
2019-04-28T05:42:11.047Z,26.83
2019-04-28T05:44:40.760Z,17.83
2019-04-28T05:47:11.625Z,28.07
2019-04-28T05:49:51.427Z,22.13
2019-04-28T05:53:00.633Z,21.47
2019-04-28T05:55:52.705Z,36.53
2019-04-28T05:58:30.059Z,30.53
2019-04-28T06:01:22.617Z,36.20
2019-04-28T06:03:53.166Z,29.03
2019-04-28T06:06:26.367Z,30.27
2019-04-28T06:09:02.985Z,27.47
2019-04-28T06:11:39.793Z,24.57
2019-04-28T06:14:10.470Z,24.73
2019-04-28T06:16:41.148Z,15.47
2019-04-28T06:19:12.743Z,18.90
2019-04-28T06:21:43.270Z,30.73
2019-04-28T06:24:13.870Z,25.90
2019-04-28T06:26:47.923Z,19.00
2019-04-28T06:29:18.534Z,30.30
2019-04-28T06:31:49.229Z,34.80
2019-04-28T06:34:19.859Z,26.67
2019-04-28T06:36:50.491Z,25.73
2019-04-28T06:39:21.007Z,13.80
2019-04-28T06:41:51.575Z,9.37
2019-04-28T06:44:22.331Z,11.37
2019-04-28T06:46:53.274Z,10.20
2019-04-28T06:49:23.933Z,13.43
2019-04-28T06:51:55.836Z,10.53
2019-04-28T06:54:26.429Z,11.03
2019-04-28T06:56:58.181Z,21.33
2019-04-28T06:59:28.784Z,17.10
2019-04-28T07:01:59.809Z,19.90
2019-04-28T07:04:30.364Z,17.00
2019-04-28T07:07:00.858Z,15.23
2019-04-28T07:09:31.381Z,19.40
2019-04-28T07:12:01.943Z,16.57
2019-04-28T07:14:32.472Z,18.97
2019-04-28T07:17:03.119Z,25.17
2019-04-28T07:19:33.682Z,15.97
2019-04-28T07:22:20.082Z,13.93
2019-04-28T07:24:50.673Z,7.37
2019-04-28T07:27:21.542Z,6.60
2019-04-28T07:29:52.184Z,9.93
2019-04-28T07:32:22.786Z,7.27
2019-04-28T07:34:53.271Z,9.97
2019-04-28T07:37:25.068Z,12.13
2019-04-28T07:39:56.848Z,17.23
2019-04-28T07:42:27.649Z,13.77
2019-04-28T07:44:58.151Z,15.80
2019-04-28T07:47:28.847Z,12.73
2019-04-28T07:49:59.367Z,7.43
2019-04-28T07:52:44.631Z,15.00
2019-04-28T07:55:15.233Z,18.60
2019-04-28T07:57:45.889Z,20.07
2019-04-28T08:00:21.730Z,14.70
2019-04-28T08:02:52.357Z,18.90
2019-04-28T08:05:23.011Z,19.47
2019-04-28T08:07:53.621Z,18.37
2019-04-28T08:10:24.281Z,20.00
2019-04-28T08:12:55.081Z,12.63
2019-04-28T08:15:25.569Z,18.93
2019-04-28T08:17:56.218Z,6.33
2019-04-28T08:20:26.743Z,8.00
2019-04-28T08:22:57.409Z,5.90
2019-04-28T08:25:27.957Z,6.40
2019-04-28T08:27:58.659Z,9.97
2019-04-28T08:30:29.303Z,8.17
2019-04-28T08:33:18.710Z,12.60
2019-04-28T08:35:49.429Z,16.77
2019-04-28T08:38:19.985Z,16.90
2019-04-28T08:40:50.530Z,11.27
2019-04-28T08:43:21.137Z,8.47
2019-04-28T08:45:51.924Z,8.43
2019-04-28T08:48:22.415Z,12.97
2019-04-28T08:50:52.952Z,9.23
2019-04-28T08:53:23.620Z,6.97
2019-04-28T08:55:55.149Z,11.43
2019-04-28T08:58:25.796Z,13.57
2019-04-28T09:00:56.533Z,10.40
2019-04-28T09:03:27.255Z,7.57
2019-04-28T09:05:57.873Z,6.83
2019-04-28T09:08:28.517Z,7.03
2019-04-28T09:10:59.266Z,5.67
2019-04-28T09:13:29.905Z,7.83
2019-04-28T09:16:00.461Z,6.27
2019-04-28T09:18:31.013Z,6.23
2019-04-28T09:21:01.560Z,18.63
2019-04-28T09:23:33.492Z,13.03
2019-04-28T09:26:04.112Z,13.23
2019-04-28T09:28:34.632Z,10.10
2019-04-28T09:31:05.327Z,6.27
2019-04-28T09:33:35.888Z,7.50
2019-04-28T09:36:06.443Z,11.90
2019-04-28T09:38:37.050Z,12.80
2019-04-28T09:41:07.716Z,13.00
2019-04-28T09:44:01.551Z,12.53
2019-04-28T09:46:35.031Z,12.20
2019-04-28T09:49:06.962Z,10.50
2019-04-28T09:51:37.554Z,5.80
2019-04-28T09:54:08.070Z,6.37
2019-04-28T09:56:38.701Z,6.43
2019-04-28T09:59:09.340Z,6.80
2019-04-28T10:01:39.985Z,6.70
2019-04-28T10:04:10.533Z,5.37
2019-04-28T10:06:41.217Z,6.37
2019-04-28T10:09:12.187Z,9.60
2019-04-28T10:11:43.347Z,8.20
2019-04-28T10:14:13.955Z,7.13
2019-04-28T10:16:44.654Z,5.60
2019-04-28T10:19:15.297Z,7.50
2019-04-28T10:21:46.041Z,4.87
2019-04-28T10:24:16.659Z,5.13
2019-04-28T10:26:48.275Z,4.87
2019-04-28T10:29:19.001Z,4.43
2019-04-28T10:31:49.608Z,5.40
2019-04-28T10:34:20.155Z,7.90
2019-04-28T10:36:50.948Z,6.03
2019-04-28T10:39:36.536Z,5.57
2019-04-28T10:42:07.354Z,7.23
2019-04-28T10:44:40.849Z,7.27
2019-04-28T10:47:11.565Z,9.87
2019-04-28T10:49:42.243Z,6.60
2019-04-28T10:52:12.914Z,9.20
2019-04-28T10:54:43.447Z,9.13
2019-04-28T10:57:14.016Z,9.30
2019-04-28T10:59:44.561Z,7.13
2019-04-28T11:02:15.263Z,7.37
2019-04-28T11:05:09.159Z,11.63
2019-04-28T11:07:39.821Z,10.37
2019-04-28T11:10:21.388Z,11.60
2019-04-28T11:12:52.104Z,8.17
2019-04-28T11:15:34.518Z,9.73
2019-04-28T11:18:06.524Z,8.43
2019-04-28T11:20:37.205Z,5.33
2019-04-28T11:23:08.059Z,6.47
2019-04-28T11:25:39.051Z,4.97
2019-04-28T11:28:10.175Z,9.23
2019-04-28T11:30:40.859Z,5.63
2019-04-28T11:33:34.202Z,8.73
2019-04-28T11:36:05.114Z,7.00
2019-04-28T11:38:35.773Z,13.30
2019-04-28T11:41:07.199Z,4.57
2019-04-28T11:43:37.821Z,5.10
2019-04-28T11:46:10.284Z,5.13
2019-04-28T11:48:41.908Z,8.53
2019-04-28T11:51:12.576Z,11.70
2019-04-28T11:53:43.233Z,7.60
2019-04-28T11:56:13.944Z,9.73
2019-04-28T11:58:44.549Z,7.17
2019-04-28T12:01:16.541Z,11.80
2019-04-28T12:03:50.894Z,8.97
2019-04-28T12:06:21.434Z,15.10
2019-04-28T12:08:53.779Z,10.00
2019-04-28T12:11:30.667Z,9.37
2019-04-28T12:14:17.695Z,10.90
2019-04-28T12:17:16.273Z,8.07
2019-04-28T12:19:50.219Z,9.37
2019-04-28T12:22:20.758Z,11.23
2019-04-28T12:24:51.347Z,10.43
2019-04-28T12:27:21.977Z,12.37
2019-04-28T12:29:52.693Z,9.97
2019-04-28T12:32:23.334Z,8.03
2019-04-28T12:34:54.113Z,12.57
2019-04-28T12:37:24.769Z,13.73
2019-04-28T12:39:55.404Z,11.73
2019-04-28T12:42:26.050Z,8.17
2019-04-28T12:44:56.555Z,9.80
2019-04-28T12:47:27.178Z,6.80
2019-04-28T12:50:13.624Z,6.50
2019-04-28T12:52:44.275Z,7.03
2019-04-28T12:55:14.918Z,7.73
2019-04-28T12:57:45.544Z,7.07
2019-04-28T13:00:39.279Z,8.83
2019-04-28T13:03:16.556Z,11.53
2019-04-28T13:06:00.200Z,10.40
2019-04-28T13:08:19.513Z,10.20
2019-04-28T13:10:50.114Z,7.43
2019-04-28T13:13:20.801Z,8.10
2019-04-28T13:15:51.399Z,13.40
2019-04-28T13:18:22.042Z,10.03
2019-04-28T13:20:52.656Z,11.23
2019-04-28T13:23:23.149Z,9.00
2019-04-28T13:25:53.624Z,8.27
2019-04-28T13:28:24.228Z,8.83
2019-04-28T13:30:54.951Z,8.30
2019-04-28T13:33:25.541Z,7.97
2019-04-28T13:35:57.369Z,8.60
2019-04-28T13:38:28.063Z,7.70
2019-04-28T13:40:58.749Z,9.07
2019-04-28T13:43:29.561Z,8.43
2019-04-28T13:46:00.222Z,8.07
2019-04-28T13:48:30.831Z,10.23
2019-04-28T13:51:01.362Z,8.97
2019-04-28T13:53:32.083Z,7.70
2019-04-28T13:56:03.976Z,11.30
2019-04-28T13:58:52.447Z,10.87
2019-04-28T14:01:40.832Z,10.30
2019-04-28T14:04:30.137Z,11.63
2019-04-28T14:07:02.734Z,10.07
2019-04-28T14:09:33.403Z,8.83
2019-04-28T14:12:04.037Z,11.20
2019-04-28T14:14:35.842Z,9.53
2019-04-28T14:17:06.593Z,11.30
2019-04-28T14:19:37.238Z,10.47
2019-04-28T14:22:07.863Z,10.97
2019-04-28T14:24:38.437Z,13.50
2019-04-28T14:27:09.059Z,10.10
2019-04-28T14:29:39.609Z,17.87
2019-04-28T14:32:10.253Z,12.80
2019-04-28T14:34:41.250Z,12.77
2019-04-28T14:37:11.979Z,13.90
2019-04-28T14:39:42.642Z,14.73
2019-04-28T14:42:13.247Z,15.10
2019-04-28T14:44:43.906Z,12.63
2019-04-28T14:47:14.456Z,15.60
2019-04-28T14:49:45.371Z,19.87
2019-04-28T14:52:19.058Z,13.73
2019-04-28T14:54:49.862Z,14.23
2019-04-28T14:57:20.381Z,14.97
2019-04-28T14:59:50.965Z,13.20
2019-04-28T15:02:31.630Z,13.00
2019-04-28T15:05:18.486Z,11.20
2019-04-28T15:07:56.744Z,13.30
2019-04-28T15:10:33.802Z,13.50
2019-04-28T15:13:04.830Z,11.60
2019-04-28T15:15:35.624Z,13.23
2019-04-28T15:18:06.457Z,11.17
2019-04-28T15:20:38.407Z,11.10
2019-04-28T15:23:09.260Z,11.13
2019-04-28T15:25:39.866Z,11.20
2019-04-28T15:28:10.576Z,12.50
2019-04-28T15:30:41.292Z,11.40
2019-04-28T15:33:12.127Z,12.97
2019-04-28T15:35:43.212Z,9.50
2019-04-28T15:38:13.914Z,9.90
2019-04-28T15:40:44.476Z,9.40
2019-04-28T15:43:15.329Z,12.17
2019-04-28T15:45:45.870Z,11.33
2019-04-28T15:48:16.546Z,10.00
2019-04-28T15:50:48.344Z,10.67
2019-04-28T15:53:19.158Z,9.33
2019-04-28T15:56:10.161Z,9.50
2019-04-28T15:58:40.908Z,9.70
2019-04-28T16:01:11.472Z,10.20
2019-04-28T16:03:42.045Z,9.60
2019-04-28T16:06:13.088Z,10.83
2019-04-28T16:08:43.716Z,10.20
2019-04-28T16:11:14.928Z,11.20
2019-04-28T16:13:45.686Z,11.17
2019-04-28T16:16:16.578Z,11.33
2019-04-28T16:18:47.429Z,14.70
2019-04-28T16:21:18.300Z,14.17
2019-04-28T16:23:48.924Z,11.93
2019-04-28T16:26:22.647Z,14.90
2019-04-28T16:28:51.657Z,15.00
2019-04-28T16:31:22.294Z,12.40
2019-04-28T16:33:52.938Z,12.23
2019-04-28T16:36:23.522Z,12.57
2019-04-28T16:38:54.285Z,10.90
2019-04-28T16:41:27.662Z,12.93
2019-04-28T16:43:59.916Z,11.43
2019-04-28T16:46:30.538Z,11.83
2019-04-28T16:49:01.321Z,14.00
2019-04-28T16:51:33.143Z,10.10
2019-04-28T16:54:03.715Z,11.87
2019-04-28T16:56:46.387Z,10.83
2019-04-28T16:59:38.987Z,10.87
2019-04-28T17:02:37.636Z,10.10
2019-04-28T17:05:10.123Z,11.23
2019-04-28T17:07:51.996Z,11.13
2019-04-28T17:10:13.458Z,14.93
2019-04-28T17:12:44.702Z,8.77
2019-04-28T17:15:15.325Z,9.37
2019-04-28T17:17:46.036Z,10.23
2019-04-28T17:20:16.753Z,9.43
2019-04-28T17:22:47.400Z,13.83
2019-04-28T17:25:18.008Z,13.27
2019-04-28T17:27:48.694Z,10.17
2019-04-28T17:30:20.154Z,11.73
2019-04-28T17:32:50.828Z,13.57
2019-04-28T17:35:21.551Z,12.70
2019-04-28T17:38:05.761Z,12.00
2019-04-28T17:40:25.327Z,14.17
2019-04-28T17:42:56.966Z,12.63
2019-04-28T17:45:27.530Z,10.93
2019-04-28T17:48:01.224Z,12.33
2019-04-28T17:50:31.976Z,12.50
2019-04-28T17:53:02.605Z,13.40
2019-04-28T17:55:33.189Z,17.70
2019-04-28T17:58:03.787Z,18.00
2019-04-28T18:00:54.250Z,15.93
2019-04-28T18:03:38.396Z,11.97
2019-04-28T18:06:19.680Z,14.97
2019-04-28T18:08:50.326Z,14.90
2019-04-28T18:11:21.153Z,16.73
2019-04-28T18:13:51.756Z,14.67
2019-04-28T18:16:41.281Z,17.07
2019-04-28T18:19:15.138Z,17.37
2019-04-28T18:21:47.230Z,15.73
2019-04-28T18:24:17.915Z,22.23
2019-04-28T18:26:49.938Z,22.73
2019-04-28T18:29:20.507Z,19.30
2019-04-28T18:32:12.365Z,21.60
2019-04-28T18:34:53.379Z,19.33
2019-04-28T18:37:42.739Z,19.90
2019-04-28T18:40:33.141Z,24.07
2019-04-28T18:43:15.319Z,19.77
2019-04-28T18:45:45.871Z,23.87
2019-04-28T18:48:16.545Z,26.40
2019-04-28T18:50:47.089Z,25.20
2019-04-28T18:53:17.770Z,24.30
2019-04-28T18:55:48.331Z,29.00
2019-04-28T18:58:18.900Z,21.93
2019-04-28T19:01:00.046Z,24.77
2019-04-28T19:03:31.013Z,24.70
2019-04-28T19:06:01.584Z,25.93
2019-04-28T19:08:50.451Z,24.27
2019-04-28T19:11:48.920Z,30.63
2019-04-28T19:14:26.359Z,23.80
2019-04-28T19:17:15.910Z,25.97
2019-04-28T19:19:46.553Z,26.97
2019-04-28T19:22:17.178Z,22.43
2019-04-28T19:24:47.697Z,22.43
2019-04-28T19:27:18.251Z,28.07
2019-04-28T19:29:48.785Z,27.33
2019-04-28T19:32:19.415Z,33.83
2019-04-28T19:34:50.044Z,23.20
2019-04-28T19:37:20.619Z,24.60
2019-04-28T19:39:51.107Z,26.27
2019-04-28T19:42:21.660Z,27.63
2019-04-28T19:44:54.375Z,27.67
2019-04-28T19:47:24.995Z,29.17
2019-04-28T19:49:55.561Z,30.50
2019-04-28T19:52:26.161Z,30.67
2019-04-28T19:55:12.847Z,31.97
2019-04-28T19:57:49.106Z,35.37
2019-04-28T20:00:33.265Z,30.93
2019-04-28T20:03:03.916Z,30.20
2019-04-28T20:05:34.549Z,29.73
2019-04-28T20:08:05.157Z,30.53
2019-04-28T20:10:35.711Z,35.40
2019-04-28T20:13:06.300Z,31.70
2019-04-28T20:15:37.091Z,29.77
2019-04-28T20:18:07.711Z,30.83
2019-04-28T20:20:38.411Z,29.27
2019-04-28T20:23:09.043Z,29.93
2019-04-28T20:25:39.648Z,31.23
2019-04-28T20:28:10.259Z,31.73
2019-04-28T20:30:40.808Z,33.43
2019-04-28T20:33:11.469Z,31.83
2019-04-28T20:35:47.407Z,35.80
2019-04-28T20:38:36.879Z,38.83
2019-04-28T20:41:22.951Z,39.53
2019-04-28T20:43:54.788Z,38.20
2019-04-28T20:46:25.291Z,41.07
2019-04-28T20:48:55.819Z,42.80
2019-04-28T20:51:28.159Z,46.23
2019-04-28T20:53:58.692Z,52.17
2019-04-28T20:56:29.208Z,34.33
2019-04-28T20:58:59.803Z,34.10
2019-04-28T21:01:30.373Z,34.93
2019-04-28T21:04:01.067Z,34.30
2019-04-28T21:06:31.650Z,32.90
2019-04-28T21:09:02.345Z,34.63
2019-04-28T21:11:34.549Z,35.27
2019-04-28T21:14:07.479Z,33.00
2019-04-28T21:16:38.024Z,36.73
2019-04-28T21:19:08.579Z,34.50
2019-04-28T21:21:39.125Z,34.37
2019-04-28T21:24:09.680Z,37.30
2019-04-28T21:26:40.216Z,35.80
2019-04-28T21:29:10.789Z,38.90
2019-04-28T21:31:41.327Z,40.03
2019-04-28T21:34:11.971Z,40.83
2019-04-28T21:36:42.683Z,38.33
2019-04-28T21:39:13.393Z,44.30
2019-04-28T21:41:44.009Z,37.17
2019-04-28T21:44:33.622Z,39.43
2019-04-28T21:47:15.464Z,39.53
2019-04-28T21:49:45.994Z,45.67
2019-04-28T21:52:16.507Z,45.43
2019-04-28T21:54:47.046Z,44.07
2019-04-28T21:57:17.522Z,42.30
2019-04-28T21:59:48.000Z,44.83
2019-04-28T22:02:18.591Z,44.93
2019-04-28T22:04:50.243Z,45.33
2019-04-28T22:07:20.804Z,44.77
2019-04-28T22:09:51.334Z,48.40
2019-04-28T22:12:21.916Z,46.50
2019-04-28T22:14:52.531Z,49.77
2019-04-28T22:17:23.065Z,45.10
2019-04-28T22:19:53.596Z,47.93
2019-04-28T22:22:24.209Z,47.97
2019-04-28T22:25:05.205Z,44.90
2019-04-28T22:27:41.639Z,41.57
2019-04-28T22:30:11.565Z,51.57
2019-04-28T22:32:42.246Z,50.10
2019-04-28T22:35:13.234Z,47.10
2019-04-28T22:37:43.783Z,43.00
2019-04-28T22:40:15.923Z,44.43
2019-04-28T22:42:47.802Z,45.40
2019-04-28T22:45:18.664Z,40.63
2019-04-28T22:47:49.149Z,40.40
2019-04-28T22:50:51.079Z,37.87
2019-04-28T22:53:25.192Z,43.97
2019-04-28T22:56:10.200Z,37.00
2019-04-28T22:58:52.755Z,37.87
2019-04-28T23:01:51.357Z,44.30
2019-04-28T23:04:31.688Z,45.40
2019-04-28T23:07:02.290Z,36.77
2019-04-28T23:09:33.246Z,42.60
2019-04-28T23:12:04.356Z,38.47
2019-04-28T23:14:34.959Z,33.67
2019-04-28T23:17:07.122Z,43.47
2019-04-28T23:19:39.498Z,41.73
2019-04-28T23:22:31.898Z,47.77
2019-04-28T23:25:02.598Z,42.10
2019-04-28T23:27:33.162Z,48.57
2019-04-28T23:30:03.916Z,36.73
2019-04-28T23:32:34.506Z,37.53
2019-04-28T23:35:05.124Z,41.43
2019-04-28T23:37:35.690Z,38.17
2019-04-28T23:40:07.345Z,40.60
2019-04-28T23:42:46.169Z,40.50
2019-04-28T23:45:16.794Z,39.23
2019-04-28T23:47:47.233Z,39.27
2019-04-28T23:50:20.288Z,37.63
2019-04-28T23:52:56.496Z,38.10
2019-04-28T23:55:27.762Z,39.93
2019-04-28T23:57:58.257Z,39.07
